sensor_id;sensor_type;location;lat;lon;timestamp;pressure;altitude;pressure_sealevel;temperature;humidity
58018;BME280;43810;50.860;19.226;2023-02-28T00:00:22;99909.16;;;-2.57;71.43
58018;BME280;43810;50.860;19.226;2023-02-28T00:03:08;99908.47;;;-2.71;72.11
58018;BME280;43810;50.860;19.226;2023-02-28T00:05:33;99913.88;;;-2.72;73.35
58018;BME280;43810;50.860;19.226;2023-02-28T00:08:00;99921.22;;;-2.69;74.04
58018;BME280;43810;50.860;19.226;2023-02-28T00:10:28;99928.00;;;-2.61;74.41
58018;BME280;43810;50.860;19.226;2023-02-28T00:12:58;99917.75;;;-2.56;74.38
58018;BME280;43810;50.860;19.226;2023-02-28T00:15:24;99918.75;;;-2.57;74.19
58018;BME280;43810;50.860;19.226;2023-02-28T00:17:50;99924.75;;;-2.57;73.76
58018;BME280;43810;50.860;19.226;2023-02-28T00:20:16;99919.91;;;-2.47;74.73
58018;BME280;43810;50.860;19.226;2023-02-28T00:22:45;99929.41;;;-2.34;75.20
58018;BME280;43810;50.860;19.226;2023-02-28T00:25:13;99933.06;;;-2.35;75.61
58018;BME280;43810;50.860;19.226;2023-02-28T00:27:40;99925.88;;;-2.40;74.18
58018;BME280;43810;50.860;19.226;2023-02-28T00:30:09;99927.34;;;-2.50;73.53
58018;BME280;43810;50.860;19.226;2023-02-28T00:32:36;99919.75;;;-2.52;73.08
58018;BME280;43810;50.860;19.226;2023-02-28T00:35:02;99919.31;;;-2.49;74.23
58018;BME280;43810;50.860;19.226;2023-02-28T00:37:28;99917.56;;;-2.55;74.63
58018;BME280;43810;50.860;19.226;2023-02-28T00:39:53;99923.59;;;-2.61;74.85
58018;BME280;43810;50.860;19.226;2023-02-28T00:42:19;99926.41;;;-2.62;75.29
58018;BME280;43810;50.860;19.226;2023-02-28T00:44:45;99927.22;;;-2.62;75.52
58018;BME280;43810;50.860;19.226;2023-02-28T00:47:11;99919.44;;;-2.69;75.76
58018;BME280;43810;50.860;19.226;2023-02-28T00:49:37;99912.06;;;-2.72;75.42
58018;BME280;43810;50.860;19.226;2023-02-28T00:52:03;99916.53;;;-2.85;74.74
58018;BME280;43810;50.860;19.226;2023-02-28T00:54:28;99916.19;;;-3.02;74.47
58018;BME280;43810;50.860;19.226;2023-02-28T00:56:54;99919.72;;;-3.28;75.44
58018;BME280;43810;50.860;19.226;2023-02-28T00:59:20;99908.78;;;-3.50;76.05
58018;BME280;43810;50.860;19.226;2023-02-28T01:01:47;99906.59;;;-3.53;77.22
58018;BME280;43810;50.860;19.226;2023-02-28T01:04:13;99912.53;;;-3.32;76.84
58018;BME280;43810;50.860;19.226;2023-02-28T01:06:39;99906.34;;;-3.31;76.49
58018;BME280;43810;50.860;19.226;2023-02-28T01:09:06;99908.38;;;-3.40;76.33
58018;BME280;43810;50.860;19.226;2023-02-28T01:11:33;99899.63;;;-3.59;75.62
58018;BME280;43810;50.860;19.226;2023-02-28T01:13:59;99908.47;;;-3.73;76.16
58018;BME280;43810;50.860;19.226;2023-02-28T01:16:26;99910.88;;;-3.91;76.38
58018;BME280;43810;50.860;19.226;2023-02-28T01:18:52;99915.25;;;-4.05;76.33
58018;BME280;43810;50.860;19.226;2023-02-28T01:21:20;99908.66;;;-4.07;76.49
58018;BME280;43810;50.860;19.226;2023-02-28T01:23:46;99900.91;;;-4.14;76.24
58018;BME280;43810;50.860;19.226;2023-02-28T01:26:15;99898.31;;;-4.27;76.25
58018;BME280;43810;50.860;19.226;2023-02-28T01:28:41;99896.91;;;-4.30;76.67
58018;BME280;43810;50.860;19.226;2023-02-28T01:31:08;99891.31;;;-4.47;76.49
58018;BME280;43810;50.860;19.226;2023-02-28T01:33:35;99898.47;;;-4.68;77.43
58018;BME280;43810;50.860;19.226;2023-02-28T01:38:29;99902.84;;;-4.69;77.59
58018;BME280;43810;50.860;19.226;2023-02-28T01:40:55;99896.06;;;-4.70;77.46
58018;BME280;43810;50.860;19.226;2023-02-28T01:45:47;99893.06;;;-4.93;77.41
58018;BME280;43810;50.860;19.226;2023-02-28T01:48:13;99903.56;;;-5.14;78.46
58018;BME280;43810;50.860;19.226;2023-02-28T01:50:41;99886.59;;;-5.24;79.66
58018;BME280;43810;50.860;19.226;2023-02-28T01:53:13;99896.97;;;-5.10;79.56
58018;BME280;43810;50.860;19.226;2023-02-28T01:55:41;99899.56;;;-5.10;79.49
58018;BME280;43810;50.860;19.226;2023-02-28T01:58:10;99904.13;;;-5.26;79.46
58018;BME280;43810;50.860;19.226;2023-02-28T02:00:36;99901.88;;;-5.35;79.68
58018;BME280;43810;50.860;19.226;2023-02-28T02:03:12;99899.88;;;-5.40;80.21
58018;BME280;43810;50.860;19.226;2023-02-28T02:05:40;99900.84;;;-5.41;80.87
58018;BME280;43810;50.860;19.226;2023-02-28T02:08:15;99895.06;;;-5.43;80.92
58018;BME280;43810;50.860;19.226;2023-02-28T02:10:48;99905.66;;;-5.38;80.33
58018;BME280;43810;50.860;19.226;2023-02-28T02:18:59;99908.44;;;-5.33;79.29
58018;BME280;43810;50.860;19.226;2023-02-28T02:29:46;99909.09;;;-5.65;81.15
58018;BME280;43810;50.860;19.226;2023-02-28T02:35:14;99919.63;;;-5.67;81.36
58018;BME280;43810;50.860;19.226;2023-02-28T02:40:29;99909.69;;;-5.63;81.17
58018;BME280;43810;50.860;19.226;2023-02-28T02:43:02;99923.03;;;-5.66;81.51
58018;BME280;43810;50.860;19.226;2023-02-28T02:45:36;99900.88;;;-5.75;81.83
58018;BME280;43810;50.860;19.226;2023-02-28T02:48:07;99907.09;;;-5.70;82.08
58018;BME280;43810;50.860;19.226;2023-02-28T02:50:38;99904.91;;;-5.66;81.54
58018;BME280;43810;50.860;19.226;2023-02-28T02:53:06;99903.28;;;-5.67;81.63
58018;BME280;43810;50.860;19.226;2023-02-28T02:55:36;99904.63;;;-5.78;81.17
58018;BME280;43810;50.860;19.226;2023-02-28T02:58:05;99903.56;;;-5.90;81.33
58018;BME280;43810;50.860;19.226;2023-02-28T03:00:39;99911.47;;;-5.98;81.78
58018;BME280;43810;50.860;19.226;2023-02-28T03:03:09;99903.84;;;-6.06;82.05
58018;BME280;43810;50.860;19.226;2023-02-28T03:05:47;99915.03;;;-5.99;83.18
58018;BME280;43810;50.860;19.226;2023-02-28T03:08:14;99916.59;;;-6.05;83.30
58018;BME280;43810;50.860;19.226;2023-02-28T03:10:50;99920.00;;;-6.04;83.88
58018;BME280;43810;50.860;19.226;2023-02-28T03:13:49;99919.19;;;-6.05;84.01
58018;BME280;43810;50.860;19.226;2023-02-28T03:24:40;99922.41;;;-6.24;83.96
58018;BME280;43810;50.860;19.226;2023-02-28T03:27:20;99923.81;;;-6.21;83.86
58018;BME280;43810;50.860;19.226;2023-02-28T03:29:56;99924.63;;;-6.21;84.16
58018;BME280;43810;50.860;19.226;2023-02-28T03:32:35;99919.19;;;-6.26;84.27
58018;BME280;43810;50.860;19.226;2023-02-28T03:35:14;99921.88;;;-6.41;83.96
58018;BME280;43810;50.860;19.226;2023-02-28T03:37:51;99919.91;;;-6.39;84.32
58018;BME280;43810;50.860;19.226;2023-02-28T03:40:22;99914.84;;;-6.25;84.40
58018;BME280;43810;50.860;19.226;2023-02-28T03:42:52;99920.72;;;-6.10;84.23
58018;BME280;43810;50.860;19.226;2023-02-28T03:45:22;99919.31;;;-6.13;84.07
58018;BME280;43810;50.860;19.226;2023-02-28T03:48:12;99921.69;;;-6.18;84.34
58018;BME280;43810;50.860;19.226;2023-02-28T03:50:41;99912.38;;;-6.34;83.90
58018;BME280;43810;50.860;19.226;2023-02-28T03:53:16;99913.81;;;-6.52;84.29
58018;BME280;43810;50.860;19.226;2023-02-28T03:55:59;99928.44;;;-6.59;84.67
58018;BME280;43810;50.860;19.226;2023-02-28T03:58:53;99918.56;;;-6.56;85.03
58018;BME280;43810;50.860;19.226;2023-02-28T04:01:25;99926.66;;;-6.59;84.56
58018;BME280;43810;50.860;19.226;2023-02-28T04:03:53;99924.38;;;-6.69;84.80
58018;BME280;43810;50.860;19.226;2023-02-28T04:06:21;99919.78;;;-6.73;85.04
58018;BME280;43810;50.860;19.226;2023-02-28T04:08:48;99922.25;;;-6.65;85.39
58018;BME280;43810;50.860;19.226;2023-02-28T04:11:34;99916.63;;;-6.69;85.58
58018;BME280;43810;50.860;19.226;2023-02-28T04:14:01;99919.22;;;-6.69;85.39
58018;BME280;43810;50.860;19.226;2023-02-28T04:16:28;99928.41;;;-6.66;85.25
58018;BME280;43810;50.860;19.226;2023-02-28T04:18:54;99923.16;;;-6.73;84.78
58018;BME280;43810;50.860;19.226;2023-02-28T04:21:32;99930.34;;;-6.89;84.46
58018;BME280;43810;50.860;19.226;2023-02-28T04:23:58;99925.34;;;-6.91;84.67
58018;BME280;43810;50.860;19.226;2023-02-28T04:26:33;99929.38;;;-6.88;84.82
58018;BME280;43810;50.860;19.226;2023-02-28T04:29:00;99928.44;;;-6.81;85.23
58018;BME280;43810;50.860;19.226;2023-02-28T04:31:26;99923.34;;;-6.74;85.17
58018;BME280;43810;50.860;19.226;2023-02-28T04:33:52;99925.31;;;-6.76;84.74
58018;BME280;43810;50.860;19.226;2023-02-28T04:36:18;99932.81;;;-6.81;84.63
58018;BME280;43810;50.860;19.226;2023-02-28T04:38:45;99932.94;;;-6.89;84.33
58018;BME280;43810;50.860;19.226;2023-02-28T04:41:12;99934.88;;;-6.91;84.37
58018;BME280;43810;50.860;19.226;2023-02-28T04:43:38;99937.66;;;-6.93;84.41
58018;BME280;43810;50.860;19.226;2023-02-28T04:46:05;99928.69;;;-6.97;84.92
58018;BME280;43810;50.860;19.226;2023-02-28T04:48:33;99947.97;;;-6.93;85.30
58018;BME280;43810;50.860;19.226;2023-02-28T04:51:01;99953.50;;;-6.96;85.48
58018;BME280;43810;50.860;19.226;2023-02-28T04:53:27;99954.13;;;-6.94;85.34
58018;BME280;43810;50.860;19.226;2023-02-28T04:55:55;99953.09;;;-6.99;85.22
58018;BME280;43810;50.860;19.226;2023-02-28T04:58:21;99957.16;;;-6.90;85.77
58018;BME280;43810;50.860;19.226;2023-02-28T05:00:52;99958.50;;;-6.94;85.62
58018;BME280;43810;50.860;19.226;2023-02-28T05:03:18;99961.69;;;-6.78;85.72
58018;BME280;43810;50.860;19.226;2023-02-28T05:05:46;99960.88;;;-6.78;85.49
58018;BME280;43810;50.860;19.226;2023-02-28T05:08:12;99964.63;;;-6.81;85.15
58018;BME280;43810;50.860;19.226;2023-02-28T05:10:38;99966.47;;;-6.75;85.32
58018;BME280;43810;50.860;19.226;2023-02-28T05:13:04;99961.50;;;-6.76;85.35
58018;BME280;43810;50.860;19.226;2023-02-28T05:15:30;99964.78;;;-6.82;84.89
58018;BME280;43810;50.860;19.226;2023-02-28T05:17:56;99967.03;;;-6.79;85.19
58018;BME280;43810;50.860;19.226;2023-02-28T05:20:22;99957.94;;;-6.75;84.96
58018;BME280;43810;50.860;19.226;2023-02-28T05:22:47;99965.06;;;-6.77;85.22
58018;BME280;43810;50.860;19.226;2023-02-28T05:25:18;99970.41;;;-6.79;85.29
58018;BME280;43810;50.860;19.226;2023-02-28T05:27:44;99968.88;;;-6.73;85.58
58018;BME280;43810;50.860;19.226;2023-02-28T05:30:10;99972.31;;;-6.87;85.13
58018;BME280;43810;50.860;19.226;2023-02-28T05:32:40;99968.28;;;-6.90;85.21
58018;BME280;43810;50.860;19.226;2023-02-28T05:35:12;99974.25;;;-6.75;85.32
58018;BME280;43810;50.860;19.226;2023-02-28T05:37:38;99972.97;;;-6.64;85.51
58018;BME280;43810;50.860;19.226;2023-02-28T05:40:05;99978.38;;;-6.59;85.52
58018;BME280;43810;50.860;19.226;2023-02-28T05:42:32;99972.50;;;-6.68;84.94
58018;BME280;43810;50.860;19.226;2023-02-28T05:44:58;99979.91;;;-6.64;84.81
58018;BME280;43810;50.860;19.226;2023-02-28T05:47:24;99978.75;;;-6.62;85.13
58018;BME280;43810;50.860;19.226;2023-02-28T05:49:50;99983.00;;;-6.54;84.85
58018;BME280;43810;50.860;19.226;2023-02-28T05:52:16;99985.41;;;-6.53;85.14
58018;BME280;43810;50.860;19.226;2023-02-28T05:54:42;99987.81;;;-6.51;85.11
58018;BME280;43810;50.860;19.226;2023-02-28T05:57:08;99995.44;;;-6.43;84.96
58018;BME280;43810;50.860;19.226;2023-02-28T05:59:34;99989.16;;;-6.34;85.05
58018;BME280;43810;50.860;19.226;2023-02-28T06:02:00;99999.88;;;-6.37;84.97
58018;BME280;43810;50.860;19.226;2023-02-28T06:04:26;100009.50;;;-6.31;85.41
58018;BME280;43810;50.860;19.226;2023-02-28T06:06:51;100009.97;;;-6.21;85.46
58018;BME280;43810;50.860;19.226;2023-02-28T06:09:18;100016.81;;;-6.13;85.58
58018;BME280;43810;50.860;19.226;2023-02-28T06:11:44;100013.53;;;-6.01;85.72
58018;BME280;43810;50.860;19.226;2023-02-28T06:14:20;100020.44;;;-5.86;85.78
58018;BME280;43810;50.860;19.226;2023-02-28T06:16:46;100017.81;;;-5.65;86.28
58018;BME280;43810;50.860;19.226;2023-02-28T06:19:12;100017.41;;;-5.41;86.20
58018;BME280;43810;50.860;19.226;2023-02-28T06:21:38;100032.13;;;-5.13;86.63
58018;BME280;43810;50.860;19.226;2023-02-28T06:24:04;100027.47;;;-4.90;87.07
58018;BME280;43810;50.860;19.226;2023-02-28T06:26:31;100018.75;;;-4.63;87.30
58018;BME280;43810;50.860;19.226;2023-02-28T06:28:58;100027.41;;;-4.42;86.95
58018;BME280;43810;50.860;19.226;2023-02-28T06:31:23;100027.06;;;-4.20;86.18
58018;BME280;43810;50.860;19.226;2023-02-28T06:33:51;100030.28;;;-3.98;85.71
58018;BME280;43810;50.860;19.226;2023-02-28T06:36:17;100025.28;;;-3.80;85.42
58018;BME280;43810;50.860;19.226;2023-02-28T06:38:44;100027.09;;;-3.60;84.41
58018;BME280;43810;50.860;19.226;2023-02-28T06:41:10;100023.09;;;-3.50;83.63
58018;BME280;43810;50.860;19.226;2023-02-28T06:43:41;100030.28;;;-3.32;83.19
58018;BME280;43810;50.860;19.226;2023-02-28T06:46:10;100022.47;;;-3.19;82.53
58018;BME280;43810;50.860;19.226;2023-02-28T06:48:36;100030.22;;;-3.06;81.68
58018;BME280;43810;50.860;19.226;2023-02-28T06:51:07;100040.97;;;-2.89;81.48
58018;BME280;43810;50.860;19.226;2023-02-28T06:53:34;100032.97;;;-2.81;79.59
58018;BME280;43810;50.860;19.226;2023-02-28T06:56:06;100036.94;;;-2.78;79.19
58018;BME280;43810;50.860;19.226;2023-02-28T06:58:33;100042.97;;;-2.84;79.12
58018;BME280;43810;50.860;19.226;2023-02-28T07:00:59;100039.72;;;-2.80;78.94
58018;BME280;43810;50.860;19.226;2023-02-28T07:03:25;100032.09;;;-2.68;78.75
58018;BME280;43810;50.860;19.226;2023-02-28T07:05:51;100031.28;;;-2.69;78.19
58018;BME280;43810;50.860;19.226;2023-02-28T07:08:17;100032.63;;;-2.53;79.13
58018;BME280;43810;50.860;19.226;2023-02-28T07:10:43;100029.56;;;-2.37;79.07
58018;BME280;43810;50.860;19.226;2023-02-28T07:13:10;100038.06;;;-2.23;78.65
58018;BME280;43810;50.860;19.226;2023-02-28T07:15:37;100036.56;;;-2.06;78.23
58018;BME280;43810;50.860;19.226;2023-02-28T07:18:03;100036.22;;;-1.84;76.77
58018;BME280;43810;50.860;19.226;2023-02-28T07:20:29;100044.13;;;-1.66;76.28
58018;BME280;43810;50.860;19.226;2023-02-28T07:22:55;100041.63;;;-1.54;74.78
58018;BME280;43810;50.860;19.226;2023-02-28T07:25:25;100030.63;;;-1.38;73.67
58018;BME280;43810;50.860;19.226;2023-02-28T07:27:52;100034.09;;;-1.20;72.06
58018;BME280;43810;50.860;19.226;2023-02-28T07:30:18;100048.56;;;-1.05;72.04
58018;BME280;43810;50.860;19.226;2023-02-28T07:32:44;100036.06;;;-0.97;72.42
58018;BME280;43810;50.860;19.226;2023-02-28T07:35:10;100032.94;;;-0.87;71.26
58018;BME280;43810;50.860;19.226;2023-02-28T07:37:36;100030.63;;;-0.77;71.36
58018;BME280;43810;50.860;19.226;2023-02-28T07:40:06;100024.72;;;-0.72;70.58
58018;BME280;43810;50.860;19.226;2023-02-28T07:42:37;100032.91;;;-0.51;71.40
58018;BME280;43810;50.860;19.226;2023-02-28T07:45:04;100034.56;;;-0.26;68.30
58018;BME280;43810;50.860;19.226;2023-02-28T07:47:31;100035.88;;;-0.17;68.07
58018;BME280;43810;50.860;19.226;2023-02-28T07:49:57;100030.91;;;-0.07;68.32
58018;BME280;43810;50.860;19.226;2023-02-28T07:52:23;100027.13;;;0.19;67.31
58018;BME280;43810;50.860;19.226;2023-02-28T07:54:50;100030.22;;;0.39;66.26
58018;BME280;43810;50.860;19.226;2023-02-28T07:57:16;100025.97;;;0.26;64.66
58018;BME280;43810;50.860;19.226;2023-02-28T07:59:41;100024.38;;;0.25;64.54
58018;BME280;43810;50.860;19.226;2023-02-28T08:02:15;100012.47;;;0.41;64.20
58018;BME280;43810;50.860;19.226;2023-02-28T08:04:41;100010.88;;;0.40;64.29
58018;BME280;43810;50.860;19.226;2023-02-28T08:07:07;100015.19;;;0.58;62.02
58018;BME280;43810;50.860;19.226;2023-02-28T08:09:33;100015.41;;;0.80;62.63
58018;BME280;43810;50.860;19.226;2023-02-28T08:11:59;100011.41;;;1.00;60.98
58018;BME280;43810;50.860;19.226;2023-02-28T08:14:25;100013.53;;;1.15;60.93
58018;BME280;43810;50.860;19.226;2023-02-28T08:16:51;100020.31;;;0.99;57.94
58018;BME280;43810;50.860;19.226;2023-02-28T08:19:17;100015.19;;;0.93;57.82
58018;BME280;43810;50.860;19.226;2023-02-28T08:21:43;100009.69;;;1.06;59.68
58018;BME280;43810;50.860;19.226;2023-02-28T08:24:08;100016.88;;;1.11;58.30
58018;BME280;43810;50.860;19.226;2023-02-28T08:26:34;100023.34;;;1.20;59.76
58018;BME280;43810;50.860;19.226;2023-02-28T08:29:00;100014.38;;;1.44;58.83
58018;BME280;43810;50.860;19.226;2023-02-28T08:31:26;100015.56;;;1.82;57.85
58018;BME280;43810;50.860;19.226;2023-02-28T08:33:52;100020.97;;;2.03;57.89
58018;BME280;43810;50.860;19.226;2023-02-28T08:36:19;100022.06;;;2.07;56.33
58018;BME280;43810;50.860;19.226;2023-02-28T08:38:45;100010.31;;;2.27;55.46
58018;BME280;43810;50.860;19.226;2023-02-28T08:41:12;100019.91;;;2.21;56.15
58018;BME280;43810;50.860;19.226;2023-02-28T08:43:39;100024.03;;;2.17;56.30
58018;BME280;43810;50.860;19.226;2023-02-28T08:46:06;100015.72;;;2.20;56.98
58018;BME280;43810;50.860;19.226;2023-02-28T08:48:34;100018.00;;;2.50;56.75
58018;BME280;43810;50.860;19.226;2023-02-28T08:51:06;100009.81;;;2.30;54.28
58018;BME280;43810;50.860;19.226;2023-02-28T08:53:32;100013.00;;;2.32;53.53
58018;BME280;43810;50.860;19.226;2023-02-28T08:56:00;100012.53;;;2.35;54.08
58018;BME280;43810;50.860;19.226;2023-02-28T08:58:26;100010.06;;;2.45;56.56
58018;BME280;43810;50.860;19.226;2023-02-28T09:00:52;100019.19;;;2.59;53.99
58018;BME280;43810;50.860;19.226;2023-02-28T09:03:19;100019.66;;;2.73;53.75
58018;BME280;43810;50.860;19.226;2023-02-28T09:05:56;100025.22;;;2.98;51.25
58018;BME280;43810;50.860;19.226;2023-02-28T09:08:23;100027.13;;;2.64;52.60
58018;BME280;43810;50.860;19.226;2023-02-28T09:10:49;100023.72;;;2.64;51.81
58018;BME280;43810;50.860;19.226;2023-02-28T09:13:15;100011.31;;;2.98;52.18
58018;BME280;43810;50.860;19.226;2023-02-28T09:15:41;100018.44;;;3.19;50.66
58018;BME280;43810;50.860;19.226;2023-02-28T09:18:07;100018.66;;;3.39;53.65
58018;BME280;43810;50.860;19.226;2023-02-28T09:20:33;100008.16;;;3.66;49.91
58018;BME280;43810;50.860;19.226;2023-02-28T09:22:58;100010.84;;;3.71;50.51
58018;BME280;43810;50.860;19.226;2023-02-28T09:25:24;100016.31;;;3.65;49.64
58018;BME280;43810;50.860;19.226;2023-02-28T09:27:50;100013.09;;;3.36;49.92
58018;BME280;43810;50.860;19.226;2023-02-28T09:30:16;100009.19;;;3.38;51.17
58018;BME280;43810;50.860;19.226;2023-02-28T09:32:42;100015.81;;;3.19;49.67
58018;BME280;43810;50.860;19.226;2023-02-28T09:35:08;100011.06;;;3.43;49.56
58018;BME280;43810;50.860;19.226;2023-02-28T09:37:38;100004.09;;;3.80;48.75
58018;BME280;43810;50.860;19.226;2023-02-28T09:40:05;100005.81;;;3.65;49.04
58018;BME280;43810;50.860;19.226;2023-02-28T09:42:33;100009.56;;;3.74;49.05
58018;BME280;43810;50.860;19.226;2023-02-28T09:45:11;100011.19;;;3.80;49.16
58018;BME280;43810;50.860;19.226;2023-02-28T09:47:44;100010.75;;;3.61;48.97
58018;BME280;43810;50.860;19.226;2023-02-28T09:52:52;100010.53;;;3.41;51.84
58018;BME280;43810;50.860;19.226;2023-02-28T09:55:33;100005.00;;;3.64;49.52
58018;BME280;43810;50.860;19.226;2023-02-28T09:58:03;100010.13;;;3.76;47.88
58018;BME280;43810;50.860;19.226;2023-02-28T10:00:34;100006.72;;;3.80;48.35
58018;BME280;43810;50.860;19.226;2023-02-28T10:03:16;100014.34;;;3.77;46.49
58018;BME280;43810;50.860;19.226;2023-02-28T10:05:50;100015.09;;;4.04;48.72
58018;BME280;43810;50.860;19.226;2023-02-28T10:08:32;100001.41;;;4.02;48.62
58018;BME280;43810;50.860;19.226;2023-02-28T10:11:06;100013.97;;;3.95;48.37
58018;BME280;43810;50.860;19.226;2023-02-28T10:13:52;100009.38;;;4.44;48.08
58018;BME280;43810;50.860;19.226;2023-02-28T10:16:34;100008.81;;;4.84;45.96
58018;BME280;43810;50.860;19.226;2023-02-28T10:22:01;100006.44;;;4.41;48.31
58018;BME280;43810;50.860;19.226;2023-02-28T10:24:42;99999.22;;;4.26;48.20
58018;BME280;43810;50.860;19.226;2023-02-28T10:27:24;100002.50;;;4.06;48.64
58018;BME280;43810;50.860;19.226;2023-02-28T10:29:52;100006.31;;;4.20;48.07
58018;BME280;43810;50.860;19.226;2023-02-28T10:32:22;100003.78;;;4.36;48.36
58018;BME280;43810;50.860;19.226;2023-02-28T10:34:57;100013.72;;;4.28;46.01
58018;BME280;43810;50.860;19.226;2023-02-28T10:37:25;99999.09;;;4.85;47.06
58018;BME280;43810;50.860;19.226;2023-02-28T10:39:51;100002.38;;;5.12;45.66
58018;BME280;43810;50.860;19.226;2023-02-28T10:42:23;100005.03;;;5.12;43.99
58018;BME280;43810;50.860;19.226;2023-02-28T10:45:13;100005.19;;;4.90;46.28
58018;BME280;43810;50.860;19.226;2023-02-28T10:47:56;99993.91;;;5.00;46.84
58018;BME280;43810;50.860;19.226;2023-02-28T10:50:29;100004.72;;;5.04;47.37
58018;BME280;43810;50.860;19.226;2023-02-28T10:53:05;99999.72;;;5.02;45.18
58018;BME280;43810;50.860;19.226;2023-02-28T10:55:33;99993.44;;;5.18;44.91
58018;BME280;43810;50.860;19.226;2023-02-28T10:57:59;99997.53;;;5.56;45.02
58018;BME280;43810;50.860;19.226;2023-02-28T11:00:32;99988.84;;;5.66;43.76
58018;BME280;43810;50.860;19.226;2023-02-28T11:02:59;99990.94;;;5.59;44.86
58018;BME280;43810;50.860;19.226;2023-02-28T11:05:35;99987.09;;;5.09;44.60
58018;BME280;43810;50.860;19.226;2023-02-28T11:08:16;99988.16;;;4.56;47.50
58018;BME280;43810;50.860;19.226;2023-02-28T11:10:47;99983.44;;;4.63;46.52
58018;BME280;43810;50.860;19.226;2023-02-28T11:13:19;99985.63;;;4.76;46.92
58018;BME280;43810;50.860;19.226;2023-02-28T11:15:55;99985.28;;;4.62;46.95
58018;BME280;43810;50.860;19.226;2023-02-28T11:21:00;99988.25;;;4.76;45.67
58018;BME280;43810;50.860;19.226;2023-02-28T11:23:30;99981.03;;;5.04;46.56
58018;BME280;43810;50.860;19.226;2023-02-28T11:26:00;99977.72;;;5.44;45.89
58018;BME280;43810;50.860;19.226;2023-02-28T11:28:33;99982.88;;;5.08;45.30
58018;BME280;43810;50.860;19.226;2023-02-28T11:36:31;99974.00;;;5.34;45.48
58018;BME280;43810;50.860;19.226;2023-02-28T11:39:04;99976.13;;;5.43;45.16
58018;BME280;43810;50.860;19.226;2023-02-28T11:42:08;99969.47;;;5.15;46.89
58018;BME280;43810;50.860;19.226;2023-02-28T11:45:03;99970.22;;;5.05;46.96
58018;BME280;43810;50.860;19.226;2023-02-28T11:48:26;99971.31;;;4.62;48.22
58018;BME280;43810;50.860;19.226;2023-02-28T11:59:35;99967.72;;;4.78;47.38
58018;BME280;43810;50.860;19.226;2023-02-28T12:11:24;99941.63;;;3.87;48.49
58018;BME280;43810;50.860;19.226;2023-02-28T12:19:29;99929.03;;;3.36;49.81
58018;BME280;43810;50.860;19.226;2023-02-28T12:25:19;99925.06;;;2.85;52.84
58018;BME280;43810;50.860;19.226;2023-02-28T12:27:48;99928.53;;;2.68;52.42
58018;BME280;43810;50.860;19.226;2023-02-28T12:30:31;99929.09;;;2.70;53.10
58018;BME280;43810;50.860;19.226;2023-02-28T12:33:12;99931.47;;;2.72;52.27
58018;BME280;43810;50.860;19.226;2023-02-28T12:36:01;99925.72;;;2.97;51.98
58018;BME280;43810;50.860;19.226;2023-02-28T12:38:29;99927.59;;;3.50;50.00
58018;BME280;43810;50.860;19.226;2023-02-28T12:41:03;99914.25;;;3.57;49.94
58018;BME280;43810;50.860;19.226;2023-02-28T12:43:38;99913.03;;;3.37;51.47
58018;BME280;43810;50.860;19.226;2023-02-28T12:46:17;99917.97;;;3.61;50.33
58018;BME280;43810;50.860;19.226;2023-02-28T12:48:50;99913.13;;;4.11;50.15
58018;BME280;43810;50.860;19.226;2023-02-28T12:51:18;99908.84;;;4.47;47.86
58018;BME280;43810;50.860;19.226;2023-02-28T12:56:44;99907.44;;;4.77;46.47
58018;BME280;43810;50.860;19.226;2023-02-28T12:59:21;99900.97;;;5.20;46.15
58018;BME280;43810;50.860;19.226;2023-02-28T13:05:07;99905.13;;;6.58;45.49
58018;BME280;43810;50.860;19.226;2023-02-28T13:10:07;99895.81;;;7.35;43.16
58018;BME280;43810;50.860;19.226;2023-02-28T13:12:34;99901.78;;;7.89;39.81
58018;BME280;43810;50.860;19.226;2023-02-28T13:15:21;99894.03;;;7.93;40.40
58018;BME280;43810;50.860;19.226;2023-02-28T13:17:56;99904.25;;;8.05;39.58
58018;BME280;43810;50.860;19.226;2023-02-28T13:20:28;99886.88;;;7.99;41.10
58018;BME280;43810;50.860;19.226;2023-02-28T13:22:55;99900.06;;;8.04;40.22
58018;BME280;43810;50.860;19.226;2023-02-28T13:27:52;99895.19;;;9.06;38.17
58018;BME280;43810;50.860;19.226;2023-02-28T13:35:47;99877.34;;;9.12;37.84
58018;BME280;43810;50.860;19.226;2023-02-28T13:38:17;99882.69;;;8.88;38.93
58018;BME280;43810;50.860;19.226;2023-02-28T13:40:47;99882.00;;;8.58;38.04
58018;BME280;43810;50.860;19.226;2023-02-28T13:43:16;99880.91;;;8.12;37.90
58018;BME280;43810;50.860;19.226;2023-02-28T13:46:12;99884.06;;;8.61;38.80
58018;BME280;43810;50.860;19.226;2023-02-28T13:48:39;99887.53;;;9.61;36.88
58018;BME280;43810;50.860;19.226;2023-02-28T13:51:43;99885.56;;;9.53;36.53
58018;BME280;43810;50.860;19.226;2023-02-28T14:05:19;99871.75;;;10.16;35.19
58018;BME280;43810;50.860;19.226;2023-02-28T14:07:53;99866.88;;;9.90;35.87
58018;BME280;43810;50.860;19.226;2023-02-28T14:10:33;99868.78;;;10.17;35.90
58018;BME280;43810;50.860;19.226;2023-02-28T14:24:10;99868.97;;;10.89;33.13
58018;BME280;43810;50.860;19.226;2023-02-28T14:26:58;99874.28;;;9.61;35.41
58018;BME280;43810;50.860;19.226;2023-02-28T14:29:43;99872.22;;;9.39;35.47
58018;BME280;43810;50.860;19.226;2023-02-28T14:34:55;99867.88;;;8.44;37.90
58018;BME280;43810;50.860;19.226;2023-02-28T14:37:30;99864.34;;;7.72;39.46
58018;BME280;43810;50.860;19.226;2023-02-28T14:39:59;99851.53;;;7.56;40.48
58018;BME280;43810;50.860;19.226;2023-02-28T14:42:34;99851.28;;;7.52;40.06
58018;BME280;43810;50.860;19.226;2023-02-28T14:45:01;99850.81;;;7.45;40.41
58018;BME280;43810;50.860;19.226;2023-02-28T14:47:32;99846.84;;;7.03;41.14
58018;BME280;43810;50.860;19.226;2023-02-28T14:49:59;99849.97;;;6.56;41.75
58018;BME280;43810;50.860;19.226;2023-02-28T14:52:28;99856.41;;;6.25;42.11
58018;BME280;43810;50.860;19.226;2023-02-28T14:55:09;99852.53;;;5.66;43.52
58018;BME280;43810;50.860;19.226;2023-02-28T14:57:58;99848.31;;;5.40;43.96
58018;BME280;43810;50.860;19.226;2023-02-28T15:00:27;99853.47;;;4.79;45.62